createdAt,value
2018-10-09T00:00:46.425Z,11.60
2018-10-09T00:03:13.787Z,11.50
2018-10-09T00:05:41.220Z,11.50
2018-10-09T00:08:08.713Z,11.50
2018-10-09T00:10:36.921Z,11.60
2018-10-09T00:13:04.381Z,11.60
2018-10-09T00:15:31.837Z,11.60
2018-10-09T00:17:59.285Z,11.60
2018-10-09T00:20:26.731Z,11.50
2018-10-09T00:22:54.969Z,11.60
2018-10-09T00:25:22.432Z,11.60
2018-10-09T00:27:49.868Z,11.60
2018-10-09T00:30:17.585Z,11.60
2018-10-09T00:32:45.028Z,11.60
2018-10-09T00:35:12.516Z,11.60
2018-10-09T00:37:39.930Z,11.60
2018-10-09T00:40:07.386Z,11.60
2018-10-09T00:42:34.847Z,11.60
2018-10-09T00:45:02.296Z,11.60
2018-10-09T00:47:29.753Z,11.50
2018-10-09T00:49:57.217Z,11.60
2018-10-09T00:52:24.692Z,11.50
2018-10-09T00:54:52.132Z,11.50
2018-10-09T00:57:20.340Z,11.50
2018-10-09T00:59:47.786Z,11.50
2018-10-09T01:02:15.248Z,11.40
2018-10-09T01:04:42.707Z,11.50
2018-10-09T01:07:10.911Z,11.50
2018-10-09T01:09:38.356Z,11.50
2018-10-09T01:12:05.805Z,11.60
2018-10-09T01:14:34.001Z,11.50
2018-10-09T01:17:01.456Z,11.50
2018-10-09T01:19:28.894Z,11.60
2018-10-09T01:21:56.349Z,11.50
2018-10-09T01:24:23.809Z,11.60
2018-10-09T01:26:51.248Z,11.50
2018-10-09T01:29:18.714Z,11.50
2018-10-09T01:31:46.152Z,11.50
2018-10-09T01:34:13.587Z,11.40
2018-10-09T01:36:41.809Z,11.40
2018-10-09T01:39:09.250Z,11.40
2018-10-09T01:41:36.709Z,11.50
2018-10-09T01:44:04.139Z,11.40
2018-10-09T01:46:31.600Z,11.30
2018-10-09T01:48:59.079Z,11.30
2018-10-09T01:51:27.295Z,11.30
2018-10-09T01:53:54.751Z,11.30
2018-10-09T01:56:22.212Z,11.30
2018-10-09T01:58:49.673Z,11.30
2018-10-09T02:01:17.127Z,11.40
2018-10-09T02:03:44.589Z,11.30
2018-10-09T02:06:12.793Z,11.20
2018-10-09T02:08:40.248Z,11.20
2018-10-09T02:11:07.704Z,11.30
2018-10-09T02:13:35.151Z,11.20
2018-10-09T02:16:02.612Z,11.20
2018-10-09T02:18:30.089Z,11.20
2018-10-09T02:20:57.537Z,11.20
2018-10-09T02:23:24.982Z,11.20
2018-10-09T02:25:53.348Z,11.20
2018-10-09T02:28:20.797Z,11.20
2018-10-09T02:30:48.240Z,11.10
2018-10-09T02:33:15.791Z,11.10
2018-10-09T02:35:43.221Z,11.10
2018-10-09T02:38:11.436Z,11.10
2018-10-09T02:40:38.891Z,11.00
2018-10-09T02:43:06.334Z,11.00
2018-10-09T02:45:34.554Z,11.00
2018-10-09T02:48:02.002Z,11.00
2018-10-09T02:50:29.460Z,11.00
2018-10-09T02:52:56.899Z,11.00
2018-10-09T02:55:25.137Z,11.00
2018-10-09T02:57:52.570Z,10.90
2018-10-09T03:00:20.008Z,11.00
2018-10-09T03:02:48.224Z,11.00
2018-10-09T03:05:15.673Z,11.00
2018-10-09T03:07:43.140Z,10.90
2018-10-09T03:10:10.597Z,10.90
2018-10-09T03:12:38.032Z,10.90
2018-10-09T03:15:06.238Z,10.90
2018-10-09T03:17:33.703Z,10.80
2018-10-09T03:20:01.137Z,10.90
2018-10-09T03:22:29.364Z,11.00
2018-10-09T03:24:56.811Z,11.00
2018-10-09T03:27:24.265Z,11.00
2018-10-09T03:29:51.716Z,11.00
2018-10-09T03:32:19.192Z,11.00
2018-10-09T03:34:47.072Z,10.80
2018-10-09T03:37:14.512Z,10.80
2018-10-09T03:39:41.955Z,10.80
2018-10-09T03:42:10.164Z,10.90
2018-10-09T03:44:37.615Z,10.90
2018-10-09T03:47:05.073Z,10.80
2018-10-09T03:49:32.527Z,10.80
2018-10-09T03:52:00.732Z,10.70
2018-10-09T03:54:28.189Z,10.60
2018-10-09T03:56:55.824Z,10.60
2018-10-09T03:59:23.300Z,10.60
2018-10-09T04:01:51.532Z,10.50
2018-10-09T04:04:19.768Z,10.60
2018-10-09T04:06:48.029Z,10.60
2018-10-09T04:09:15.621Z,10.60
2018-10-09T04:11:42.954Z,10.60
2018-10-09T04:14:14.308Z,10.70
2018-10-09T04:16:42.526Z,10.60
2018-10-09T04:19:09.968Z,10.60
2018-10-09T04:21:37.443Z,10.60
2018-10-09T04:24:05.646Z,10.50
2018-10-09T04:26:33.157Z,10.50
2018-10-09T04:29:00.609Z,10.60
2018-10-09T04:31:28.083Z,10.60
2018-10-09T04:33:55.521Z,10.50
2018-10-09T04:36:22.981Z,10.50
2018-10-09T04:38:50.419Z,10.60
2018-10-09T04:41:17.880Z,10.60
2018-10-09T04:43:45.324Z,10.60
2018-10-09T04:46:12.784Z,10.60
2018-10-09T04:48:40.237Z,10.60
2018-10-09T04:51:08.451Z,10.60
2018-10-09T04:53:35.927Z,10.60
2018-10-09T04:56:03.404Z,10.60
2018-10-09T04:58:30.837Z,10.60
2018-10-09T05:00:58.599Z,10.70
2018-10-09T05:03:26.069Z,10.70
2018-10-09T05:05:53.529Z,10.70
2018-10-09T05:08:26.484Z,10.70
2018-10-09T05:10:54.690Z,10.70
2018-10-09T05:13:22.166Z,10.70
2018-10-09T05:15:49.618Z,10.70
2018-10-09T05:18:17.069Z,10.70
2018-10-09T05:20:44.528Z,10.70
2018-10-09T05:23:11.999Z,10.70
2018-10-09T05:25:39.457Z,10.80
2018-10-09T05:28:06.900Z,10.80
2018-10-09T05:30:35.120Z,10.70
2018-10-09T05:33:02.556Z,10.70
2018-10-09T05:35:30.017Z,10.70
2018-10-09T05:37:57.477Z,10.60
2018-10-09T05:40:24.959Z,10.70
2018-10-09T05:42:52.411Z,10.70
2018-10-09T05:45:20.633Z,10.80
2018-10-09T05:47:48.076Z,10.80
2018-10-09T05:50:15.546Z,10.80
2018-10-09T05:52:43.029Z,10.80
2018-10-09T05:55:10.459Z,10.90
2018-10-09T05:57:37.914Z,10.90
2018-10-09T06:00:05.462Z,10.80
2018-10-09T06:02:33.679Z,10.90
2018-10-09T06:05:01.136Z,10.90
2018-10-09T06:07:28.596Z,10.90
2018-10-09T06:09:56.044Z,10.90
2018-10-09T06:12:23.508Z,10.90
2018-10-09T06:14:50.958Z,10.90
2018-10-09T06:17:18.421Z,10.90
2018-10-09T06:19:46.612Z,11.00
2018-10-09T06:22:15.114Z,11.00
2018-10-09T06:24:42.536Z,11.00
2018-10-09T06:27:10.748Z,11.10
2018-10-09T06:29:38.200Z,11.10
2018-10-09T06:32:05.672Z,11.10
2018-10-09T06:34:33.113Z,11.10
2018-10-09T06:37:00.600Z,11.10
2018-10-09T06:39:28.798Z,11.10
2018-10-09T06:41:56.256Z,11.10
2018-10-09T06:44:23.704Z,11.10
2018-10-09T06:46:51.321Z,11.10
2018-10-09T06:49:18.780Z,11.20
2018-10-09T06:51:46.240Z,11.20
2018-10-09T06:54:13.851Z,11.20
2018-10-09T06:56:41.140Z,11.20
2018-10-09T06:59:08.601Z,11.20
2018-10-09T07:01:36.077Z,11.20
2018-10-09T07:04:03.550Z,11.20
2018-10-09T07:06:31.048Z,11.20
2018-10-09T07:08:58.492Z,11.20
2018-10-09T07:11:26.774Z,11.30
2018-10-09T07:13:54.193Z,11.30
2018-10-09T07:16:21.870Z,11.40
2018-10-09T07:18:49.302Z,11.40
2018-10-09T07:21:16.777Z,11.40
2018-10-09T07:23:44.212Z,11.40
2018-10-09T07:26:11.675Z,11.40
2018-10-09T07:28:39.161Z,11.50
2018-10-09T07:31:06.620Z,11.60
2018-10-09T07:33:34.090Z,11.50
2018-10-09T07:36:01.553Z,11.60
2018-10-09T07:38:29.017Z,11.70
2018-10-09T07:40:57.059Z,11.70
2018-10-09T07:43:25.314Z,11.70
2018-10-09T07:45:52.766Z,11.70
2018-10-09T07:48:20.219Z,11.80
2018-10-09T07:50:47.676Z,11.90
2018-10-09T07:53:15.141Z,12.10
2018-10-09T07:55:42.605Z,12.10
2018-10-09T07:58:10.048Z,12.10
2018-10-09T08:00:37.517Z,12.20
2018-10-09T08:03:05.067Z,12.20
2018-10-09T08:05:32.530Z,12.30
2018-10-09T08:08:00.005Z,12.30
2018-10-09T08:10:27.503Z,12.30
2018-10-09T08:12:54.937Z,12.30
2018-10-09T08:15:22.396Z,12.40
2018-10-09T08:17:49.848Z,12.50
2018-10-09T08:20:17.321Z,12.70
2018-10-09T08:22:44.830Z,12.80
2018-10-09T08:25:12.250Z,12.90
2018-10-09T08:27:39.712Z,12.80
2018-10-09T08:30:07.168Z,12.80
2018-10-09T08:32:34.640Z,13.00
2018-10-09T08:35:02.112Z,13.20
2018-10-09T08:37:29.592Z,13.50
2018-10-09T08:39:57.063Z,13.70
2018-10-09T08:42:25.668Z,13.80
2018-10-09T08:44:53.884Z,13.80
2018-10-09T08:47:21.339Z,13.80
2018-10-09T08:49:48.788Z,13.70
2018-10-09T08:52:16.251Z,13.90
2018-10-09T08:54:44.955Z,14.20
2018-10-09T08:57:12.410Z,14.20
2018-10-09T08:59:39.857Z,14.40
2018-10-09T09:02:08.461Z,15.10
2018-10-09T09:04:35.916Z,15.10
2018-10-09T09:07:03.384Z,15.30
2018-10-09T09:09:30.898Z,15.40
2018-10-09T09:11:58.330Z,15.30
2018-10-09T09:14:26.226Z,15.30
2018-10-09T09:16:53.695Z,15.60
2018-10-09T09:19:22.287Z,15.90
2018-10-09T09:21:49.732Z,15.90
2018-10-09T09:24:17.202Z,15.90
2018-10-09T09:26:44.737Z,15.70
2018-10-09T09:29:12.506Z,16.10
2018-10-09T09:31:39.961Z,16.30
2018-10-09T09:34:07.412Z,16.30
2018-10-09T09:36:34.942Z,16.60
2018-10-09T09:39:02.462Z,16.70
2018-10-09T09:41:29.866Z,16.90
2018-10-09T09:43:57.360Z,16.90
2018-10-09T09:46:25.632Z,17.10
2018-10-09T09:48:53.065Z,17.10
2018-10-09T09:51:20.605Z,17.10
2018-10-09T09:53:48.063Z,17.00
2018-10-09T09:56:15.524Z,17.20
2018-10-09T09:58:43.170Z,17.30
2018-10-09T10:01:10.449Z,17.10
2018-10-09T10:03:37.959Z,17.10
2018-10-09T10:06:05.370Z,17.10
2018-10-09T10:08:32.829Z,16.90
2018-10-09T10:11:00.287Z,17.00
2018-10-09T10:13:27.759Z,16.90
2018-10-09T10:15:55.287Z,17.30
2018-10-09T10:18:22.681Z,17.40
2018-10-09T10:20:50.149Z,17.30
2018-10-09T10:23:17.592Z,17.40
2018-10-09T10:25:45.045Z,17.70
2018-10-09T10:28:13.297Z,17.80
2018-10-09T10:30:40.742Z,17.70
2018-10-09T10:33:10.413Z,17.80
2018-10-09T10:35:37.967Z,17.80
2018-10-09T10:38:05.412Z,17.70
2018-10-09T10:40:32.874Z,17.70
2018-10-09T10:43:00.312Z,17.80
2018-10-09T10:45:27.797Z,17.90
2018-10-09T10:47:55.257Z,18.00
2018-10-09T10:50:22.720Z,17.80
2018-10-09T10:52:50.239Z,18.00
2018-10-09T10:55:17.694Z,18.10
2018-10-09T10:57:45.152Z,18.20
2018-10-09T11:00:12.613Z,18.50
2018-10-09T11:02:40.056Z,18.20
2018-10-09T11:05:08.272Z,17.40
2018-10-09T11:07:35.735Z,17.40
2018-10-09T11:10:03.169Z,17.20
2018-10-09T11:12:31.389Z,17.40
2018-10-09T11:14:58.832Z,17.40
2018-10-09T11:17:26.272Z,17.30
2018-10-09T11:19:53.714Z,17.30
2018-10-09T11:22:21.160Z,17.40
2018-10-09T11:24:48.598Z,17.70
2018-10-09T11:27:16.053Z,17.70
2018-10-09T11:29:43.616Z,17.60
2018-10-09T11:32:11.065Z,17.60
2018-10-09T11:34:38.511Z,17.50
2018-10-09T11:37:07.452Z,17.60
2018-10-09T11:39:34.903Z,17.60
2018-10-09T11:42:02.361Z,17.50
2018-10-09T11:44:29.817Z,17.50
2018-10-09T11:46:58.390Z,17.60
2018-10-09T11:49:25.888Z,17.60
2018-10-09T11:51:53.358Z,17.60
2018-10-09T11:54:20.815Z,18.00
2018-10-09T11:56:49.400Z,18.30
2018-10-09T11:59:16.857Z,18.30
2018-10-09T12:01:44.288Z,18.40
2018-10-09T12:04:11.734Z,18.70
2018-10-09T12:11:36.793Z,18.80
2018-10-09T12:14:05.015Z,18.70
2018-10-09T12:16:32.468Z,18.70
2018-10-09T12:18:59.932Z,18.80
2018-10-09T12:21:27.378Z,18.90
2018-10-09T12:23:54.825Z,18.80
2018-10-09T12:26:23.045Z,18.70
2018-10-09T12:28:50.515Z,18.70
2018-10-09T12:31:18.733Z,18.70
2018-10-09T12:33:46.949Z,18.70
2018-10-09T12:36:14.443Z,18.70
2018-10-09T12:38:41.873Z,18.80
2018-10-09T12:43:38.232Z,18.30
2018-10-09T12:46:07.195Z,18.30
2018-10-09T12:51:03.438Z,18.10
2018-10-09T12:53:30.879Z,18.20
2018-10-09T12:55:58.337Z,18.10
2018-10-09T12:58:25.786Z,18.00
2018-10-09T13:00:53.230Z,18.00
2018-10-09T13:03:20.678Z,17.90
2018-10-09T13:05:48.906Z,17.80
2018-10-09T13:08:16.353Z,17.80
2018-10-09T13:10:43.804Z,17.70
2018-10-09T13:13:11.260Z,17.90
2018-10-09T13:15:38.730Z,17.70
2018-10-09T13:18:06.170Z,17.60
2018-10-09T13:20:33.629Z,17.40
2018-10-09T13:23:01.841Z,17.50
2018-10-09T13:25:29.291Z,17.50
2018-10-09T13:27:56.752Z,17.60
2018-10-09T13:30:24.228Z,17.50
2018-10-09T13:32:51.680Z,17.50
2018-10-09T13:35:19.146Z,17.40
2018-10-09T13:37:46.605Z,17.50
2018-10-09T13:40:14.063Z,17.50
2018-10-09T13:42:41.513Z,17.50
2018-10-09T13:45:09.737Z,17.40
2018-10-09T13:47:37.302Z,17.40
2018-10-09T13:50:04.633Z,17.50
2018-10-09T13:52:32.234Z,17.50
2018-10-09T13:54:59.744Z,17.40
2018-10-09T13:57:27.162Z,17.40
2018-10-09T13:59:54.621Z,17.40
2018-10-09T14:02:22.069Z,17.40
2018-10-09T14:04:49.513Z,17.40
2018-10-09T14:07:16.972Z,17.40
2018-10-09T14:09:44.400Z,17.40
2018-10-09T14:12:11.839Z,17.40
2018-10-09T14:14:39.277Z,17.40
2018-10-09T14:17:06.723Z,17.40
2018-10-09T14:19:34.173Z,17.40
2018-10-09T14:22:01.609Z,17.40
2018-10-09T14:24:29.045Z,17.40
2018-10-09T14:26:56.549Z,17.40
2018-10-09T14:29:23.990Z,17.40
2018-10-09T14:31:51.453Z,17.40
2018-10-09T14:34:18.893Z,17.30
2018-10-09T14:36:46.341Z,17.40
2018-10-09T14:39:13.776Z,17.40
2018-10-09T14:41:41.222Z,17.40
2018-10-09T14:44:09.487Z,17.30
2018-10-09T14:46:36.874Z,17.30
2018-10-09T14:49:05.079Z,17.20
2018-10-09T14:51:32.545Z,17.20
2018-10-09T14:53:59.999Z,17.20
2018-10-09T14:56:27.450Z,17.20
2018-10-09T14:58:54.904Z,17.20
2018-10-09T15:01:23.104Z,17.10
2018-10-09T15:03:50.545Z,17.10
2018-10-09T15:06:18.761Z,17.10
2018-10-09T15:08:46.197Z,17.10
2018-10-09T15:11:13.676Z,17.10
2018-10-09T15:13:41.129Z,17.00
2018-10-09T15:16:08.567Z,16.90
2018-10-09T15:18:36.797Z,16.90
2018-10-09T15:21:05.386Z,16.80
2018-10-09T15:23:32.823Z,16.80
2018-10-09T15:26:00.290Z,16.80
2018-10-09T15:28:27.749Z,17.00
2018-10-09T15:30:55.448Z,16.90
2018-10-09T15:33:23.656Z,16.90
2018-10-09T15:35:51.126Z,16.90
2018-10-09T15:38:19.344Z,16.90
2018-10-09T15:40:46.785Z,16.90
2018-10-09T15:43:14.227Z,16.80
2018-10-09T15:45:41.664Z,16.90
2018-10-09T15:48:09.131Z,16.90
2018-10-09T15:50:36.574Z,16.90
2018-10-09T15:53:04.014Z,16.90
2018-10-09T15:55:31.460Z,16.80
2018-10-09T15:57:59.682Z,16.70
2018-10-09T16:00:27.134Z,16.70
2018-10-09T16:02:54.570Z,16.70
2018-10-09T16:05:22.029Z,16.70
2018-10-09T16:07:50.248Z,16.60
2018-10-09T16:10:17.688Z,16.60
2018-10-09T16:12:45.143Z,16.60
2018-10-09T16:15:12.592Z,16.60
2018-10-09T16:17:40.799Z,16.50
2018-10-09T16:20:08.260Z,16.50
2018-10-09T16:22:35.699Z,16.50
2018-10-09T16:25:04.280Z,16.40
2018-10-09T16:27:32.486Z,16.40
2018-10-09T16:30:01.058Z,16.30
2018-10-09T16:32:28.609Z,16.30
2018-10-09T16:34:55.980Z,16.30
2018-10-09T16:37:23.426Z,16.30
2018-10-09T16:39:51.640Z,16.20
2018-10-09T16:42:19.117Z,16.20
2018-10-09T16:44:46.555Z,16.10
2018-10-09T16:47:14.087Z,16.20
2018-10-09T16:49:41.477Z,16.20
2018-10-09T16:52:09.676Z,16.00
2018-10-09T16:54:37.130Z,16.00
2018-10-09T16:57:04.574Z,16.00
2018-10-09T16:59:32.785Z,16.00
2018-10-09T17:02:00.241Z,16.00
2018-10-09T17:04:27.688Z,15.70
2018-10-09T17:06:55.964Z,15.70
2018-10-09T17:09:23.342Z,15.70
2018-10-09T17:11:50.788Z,15.60
2018-10-09T17:14:18.989Z,15.70
2018-10-09T17:16:46.441Z,15.60
2018-10-09T17:19:13.897Z,15.60
2018-10-09T17:21:41.344Z,15.60
2018-10-09T17:24:09.579Z,15.50
2018-10-09T17:26:37.048Z,15.50
2018-10-09T17:29:04.475Z,15.30
2018-10-09T17:31:31.925Z,15.50
2018-10-09T17:33:59.543Z,15.40
2018-10-09T17:36:26.990Z,15.00
2018-10-09T17:38:54.430Z,14.90
2018-10-09T17:41:21.877Z,15.00
2018-10-09T17:43:50.087Z,15.00
2018-10-09T17:46:17.563Z,15.00
2018-10-09T17:48:46.178Z,14.90
2018-10-09T17:51:14.303Z,14.90
2018-10-09T17:53:41.954Z,14.90
2018-10-09T17:56:09.345Z,14.90
2018-10-09T17:58:36.795Z,15.00
2018-10-09T18:01:04.245Z,15.00
2018-10-09T18:03:32.452Z,14.90
2018-10-09T18:05:59.891Z,14.90
2018-10-09T18:08:27.363Z,14.80
2018-10-09T18:10:54.797Z,14.90
2018-10-09T18:13:23.027Z,14.40
2018-10-09T18:15:50.483Z,14.40
2018-10-09T18:18:17.951Z,14.30
2018-10-09T18:23:19.831Z,14.30
2018-10-09T18:25:47.295Z,14.30
2018-10-09T18:28:14.802Z,14.40
2018-10-09T18:30:42.411Z,14.40
2018-10-09T18:33:09.993Z,14.50
2018-10-09T18:35:37.390Z,14.20
2018-10-09T18:38:04.964Z,14.20
2018-10-09T18:40:32.567Z,14.20
2018-10-09T18:42:59.995Z,14.30
2018-10-09T18:45:27.456Z,14.40
2018-10-09T18:47:54.918Z,14.30
2018-10-09T18:50:22.472Z,14.40
2018-10-09T18:52:49.945Z,14.30
2018-10-09T18:55:17.390Z,14.20
2018-10-09T18:57:44.850Z,14.10
2018-10-09T19:00:12.315Z,14.00
2018-10-09T19:02:39.764Z,13.90
2018-10-09T19:05:07.210Z,13.80
2018-10-09T19:07:34.686Z,13.70
2018-10-09T19:10:02.130Z,13.50
2018-10-09T19:12:29.588Z,13.50
2018-10-09T19:14:57.053Z,13.30
2018-10-09T19:17:24.553Z,13.30
2018-10-09T19:19:52.074Z,13.40
2018-10-09T19:22:19.580Z,13.30
2018-10-09T19:24:48.172Z,13.00
2018-10-09T19:27:15.624Z,12.90
2018-10-09T19:29:43.187Z,13.10
2018-10-09T19:32:10.763Z,13.00
2018-10-09T19:34:38.209Z,13.10
2018-10-09T19:37:05.780Z,13.00
2018-10-09T19:39:33.278Z,12.80
2018-10-09T19:42:00.810Z,12.80
2018-10-09T19:44:28.268Z,12.70
2018-10-09T19:46:55.827Z,12.70
2018-10-09T19:49:23.306Z,12.70
2018-10-09T19:51:50.768Z,12.70
2018-10-09T19:54:19.447Z,12.60
2018-10-09T19:56:47.021Z,12.60
2018-10-09T19:59:14.689Z,12.60
2018-10-09T20:01:42.231Z,12.60
2018-10-09T20:04:09.705Z,12.60
2018-10-09T20:06:37.170Z,12.50
2018-10-09T20:09:04.631Z,12.60
2018-10-09T20:11:32.106Z,12.60
2018-10-09T20:13:59.570Z,12.50
2018-10-09T20:16:27.256Z,12.50
2018-10-09T20:18:55.484Z,12.40
2018-10-09T20:21:22.942Z,12.40
2018-10-09T20:23:50.407Z,12.30
2018-10-09T20:26:17.873Z,12.30
2018-10-09T20:28:45.454Z,12.20
2018-10-09T20:31:12.910Z,12.10
2018-10-09T20:33:40.485Z,12.10
2018-10-09T20:36:08.037Z,12.10
2018-10-09T20:38:35.510Z,12.10
2018-10-09T20:41:02.984Z,12.20
2018-10-09T20:43:30.537Z,12.30
2018-10-09T20:45:58.002Z,12.20
2018-10-09T20:48:25.451Z,12.20
2018-10-09T20:50:53.012Z,12.20
2018-10-09T20:53:20.476Z,12.00
2018-10-09T20:55:48.054Z,12.30
2018-10-09T20:58:15.517Z,12.10
2018-10-09T21:00:43.066Z,12.10
2018-10-09T21:03:10.524Z,12.10
2018-10-09T21:05:38.006Z,12.10
2018-10-09T21:08:05.559Z,12.00
2018-10-09T21:10:33.029Z,11.90
2018-10-09T21:13:00.474Z,11.90
2018-10-09T21:15:28.046Z,12.00
2018-10-09T21:17:55.651Z,12.10
2018-10-09T21:20:23.074Z,12.40
2018-10-09T21:22:50.547Z,12.30
2018-10-09T21:25:18.017Z,12.30
2018-10-09T21:27:45.565Z,12.10
2018-10-09T21:30:13.116Z,12.10
2018-10-09T21:32:42.754Z,12.00
2018-10-09T21:35:10.204Z,12.00
2018-10-09T21:37:37.764Z,12.00
2018-10-09T21:40:05.328Z,12.10
2018-10-09T21:42:32.788Z,11.90
2018-10-09T21:45:00.258Z,11.80
2018-10-09T21:47:27.715Z,11.80
2018-10-09T21:49:55.183Z,11.80
2018-10-09T21:52:22.648Z,11.70
2018-10-09T21:54:50.315Z,11.60
2018-10-09T21:57:17.880Z,11.60
2018-10-09T21:59:46.113Z,11.50
2018-10-09T22:02:13.610Z,11.40
2018-10-09T22:04:41.179Z,11.50
2018-10-09T22:07:08.636Z,11.50
2018-10-09T22:09:36.199Z,11.50
2018-10-09T22:12:03.762Z,11.60
2018-10-09T22:14:31.237Z,11.40
2018-10-09T22:16:58.713Z,11.20
2018-10-09T22:19:26.953Z,11.20
2018-10-09T22:21:54.402Z,11.20
2018-10-09T22:24:21.890Z,11.30
2018-10-09T22:26:49.344Z,11.20
2018-10-09T22:29:16.856Z,11.30
2018-10-09T22:31:45.095Z,11.20
2018-10-09T22:34:12.665Z,11.20
2018-10-09T22:36:40.220Z,11.10
2018-10-09T22:39:07.673Z,11.10
2018-10-09T22:41:35.348Z,10.90
2018-10-09T22:44:02.860Z,11.00
2018-10-09T22:46:30.267Z,11.00
2018-10-09T22:48:57.731Z,11.10
2018-10-09T22:51:25.204Z,11.00
2018-10-09T22:53:52.760Z,11.00
2018-10-09T22:56:20.215Z,11.00
2018-10-09T22:58:47.676Z,10.90
2018-10-09T23:01:15.156Z,11.00
2018-10-09T23:03:42.746Z,11.00
2018-10-09T23:06:10.983Z,10.80
2018-10-09T23:08:38.468Z,10.70
2018-10-09T23:11:06.152Z,10.80
2018-10-09T23:13:34.373Z,10.70
2018-10-09T23:16:01.837Z,10.70
2018-10-09T23:18:29.308Z,10.70
2018-10-09T23:20:56.768Z,10.80
2018-10-09T23:23:24.232Z,10.80
2018-10-09T23:25:51.695Z,10.80
2018-10-09T23:28:19.162Z,10.80
2018-10-09T23:30:46.845Z,10.70
2018-10-09T23:33:14.301Z,10.60
2018-10-09T23:35:41.763Z,10.60
2018-10-09T23:38:09.244Z,10.60
2018-10-09T23:40:36.802Z,10.70
2018-10-09T23:43:04.375Z,10.50
2018-10-09T23:45:31.827Z,10.60
2018-10-09T23:47:59.281Z,10.50
2018-10-09T23:50:26.864Z,10.40
2018-10-09T23:52:54.419Z,10.50
2018-10-09T23:55:21.873Z,10.50
2018-10-09T23:57:49.432Z,10.60
